Etusivu
METAR-TAF:

METAR-TAF

Lentoasemat :

Hassi Messaoud, Algeria

Leveyspiiri: 31-40N, Pituuspiiri: 006-09E, korkeus merenpinnasta: 142 m

Tämänhetkinen sää

Tämä raportti tehtiin 45 minuuttia sitten, kello 11.30 UTC
Tuuli 11 kn etelästä
Lämpötila 46°C
Kosteus 7%
Ilmanpaine 1011 hPa
Näkyvyys: 7000 m

METAR: DAUH 191130Z 18011KT 7000 NSC 46/02 Q1011

Aika: 13:15 (12:15 UTC)

Sääennuste

Tämä raportti tehtiin 1 tunti ja 15 minuuttia sitten, kello 11.00 UTC
Ennuste voimassa 19. päivästä klo 12 UTC - 20. päivään klo 12 UTC
Tuuli 15 kn etelästä/kaakosta
Näkyvyys: 8000 m
Todennäköisyys 40%
19. päivästä klo 12 UTC - 19. päivään klo 18 UTC
Tuuli 25 kn etelästä
Näkyvyys: 4000 m
matalaa hiekkatuisku
Todennäköisyys 30% :
Ajoittain
19. päivästä klo 12 UTC - 19. päivään klo 18 UTC
Tuuli 25 kn etelästä puuskistuen 35 kn:hen
Näkyvyys: 1500 m
hiekkatuisku

TAF: DAUH 191100Z 1912/2012 15015KT 8000 NSC PROB40 1912/1918 18025KT 4000 DRSA PROB30 TEMPO 1912/1918 18025G35KT 1500 BLSA

Säähavainnot ja -ennusteet yli 4000 lentoasemalta (METAR- ja TAF-raportit).

Käytössä olevat sääasemat on merkitty karttaan keltaisilla ja punaisilla pisteillä.

Aseta hiiri pisteen päälle nähdäksesi sääaseman nimen.

Klikkaa sitten nähdäksesi säähavainnot ja -ennusteet.

Kartan vaihtaminen: klikkaa mustalla rastilla varustettuja vihreitä pisteitä, niin voit zoomata sisään; viivalla varustettua vihreää pistettä, niin voit zoomata ulos tai vihreitä nuolia, niin pääset viereisille kartoille.


METAR-TAF: